Main page
METAR-TAF:

METAR-TAF

Airports :

Riyadh, Saudi Arabia

King Khalid International Airport

latitude: 24-56N, longitude: 046-43E, elevation: 614 m

Current weather observation

The report was made 19 minutes ago, at 17:00 UTC
Wind 9 kt from the Northeast
Temperature 36°C
Humidity 10%
Pressure 1009 hPa
Visibility 10 km or more
no clouds below 1500 m and no cumulonimbus

METAR: OERK 231700Z 04009KT CAVOK 36/M01 Q1009 NOSIG

Time: 20:19 (17:19 UTC)

Forecast

The report was made 6 hours and 19 minutes ago, at 11:00 UTC
Forecast valid from 23 at 12 UTC to 24 at 18 UTC
Wind 6 kt from the North with gusts up to 16 kt
Visibility: 7000 m
Clear sky
Temporary
from 23 at 12 UTC to 23 at 20 UTC
Visibility: 3500 m
widespread dust, Blowing dust
Probability 30% :
Temporary
from 23 at 12 UTC to 23 at 16 UTC
Visibility: 1500 m
Blowing sand

TAF: OERK 231100Z 2312/2418 36006G16KT 7000 SKC TEMPO 2312/2320 3500 DU BLDU PROB30 TEMPO 2312/2316 1500 BLSA

Weather observations and forecasts of more than 4000 airports (METAR and TAF reports).

The available stations are represented by yellow and red dots on the map.

Hover mouse over dot to see the name of the station.

Then click to see weather observations and forecasts.

To change the map : click on the green buttons with a black cross to zoom in, on the green button with a dash to zoom out, or on the green arrows for adjacent maps.


METAR-TAF: